Time;durP1;ratioP1;P1;durP2;ratioP2;P2;SDS_P1;SDS_P2;PMS_P1;PMS_P2;Temp;Humidity;BMP_temperature;BMP_pressure;BME280_temperature;BME280_humidity;BME280_pressure;Samples;Min_cycle;Max_cycle;Signal;HPM_P1;HPM_P2
2022/09/10 00:01:47;;;;;;;16.80;9.60;;;;;;;13.48;100.00;97171.58;110104;1246;59681;-67
2022/09/10 00:04:17;;;;;;;15.00;9.30;;;;;;;13.47;100.00;97163.98;110143;1247;70749;-67
2022/09/10 00:06:46;;;;;;;13.80;8.80;;;;;;;13.46;100.00;97167.56;110123;1247;68760;-68
2022/09/10 00:09:15;;;;;;;;;;;;;;;13.47;100.00;97165.20;110096;1247;69393;-68
2022/09/10 00:11:46;;;;;;;14.50;9.90;;;;;;;13.45;100.00;97162.41;110104;1247;59670;-67
2022/09/10 00:14:16;;;;;;;;;;;;;;;13.42;100.00;97166.17;110124;1247;59637;-68
2022/09/10 00:16:47;;;;;;;16.50;8.90;;;;;;;13.38;100.00;97168.08;110096;1247;71336;-66
2022/09/10 00:19:17;;;;;;;12.60;8.20;;;;;;;13.35;100.00;97169.77;110123;1246;68594;-67
2022/09/10 00:21:49;;;;;;;12.60;9.40;;;;;;;13.32;100.00;97169.84;110091;1247;68646;-66
2022/09/10 00:24:21;;;;;;;17.10;9.80;;;;;;;13.29;100.00;97170.36;110102;1247;59691;-66
2022/09/10 00:26:50;;;;;;;13.40;9.80;;;;;;;13.26;100.00;97168.27;110115;1246;59741;-67
2022/09/10 00:29:21;;;;;;;12.80;8.80;;;;;;;13.22;100.00;97162.98;108545;1247;2067672;-67
2022/09/10 00:31:52;;;;;;;13.50;9.50;;;;;;;13.20;100.00;97155.13;110062;1247;68866;-67
2022/09/10 00:34:22;;;;;;;9.60;8.50;;;;;;;13.17;100.00;97148.73;110161;1247;68604;-67
2022/09/10 00:36:53;;;;;;;9.40;7.70;;;;;;;13.14;100.00;97143.27;110128;1247;59750;-67
2022/09/10 00:39:24;;;;;;;11.10;8.90;;;;;;;13.11;100.00;97137.23;110158;1247;59762;-67
2022/09/10 00:41:55;;;;;;;12.40;10.50;;;;;;;13.08;100.00;97134.19;110119;1247;70755;-68
2022/09/10 00:44:40;;;;;;;14.10;10.50;;;;;;;13.03;100.00;97134.03;110113;1247;69231;-66
2022/09/10 00:47:21;;;;;;;14.40;12.30;;;;;;;12.99;100.00;97128.41;110050;1246;69401;-67
2022/09/10 00:50:01;;;;;;;15.80;12.30;;;;;;;12.95;100.00;97128.42;110002;1247;59686;-68
2022/09/10 00:52:32;;;;;;;14.70;11.40;;;;;;;12.91;100.00;97120.42;110057;1247;59724;-67
2022/09/10 00:55:11;;;;;;;13.30;9.90;;;;;;;12.87;100.00;97115.17;110096;1247;71046;-67
2022/09/10 00:57:42;;;;;;;11.70;10.30;;;;;;;12.84;100.00;97109.14;110108;1247;69382;-68
2022/09/10 01:00:13;;;;;;;12.30;9.00;;;;;;;12.82;100.00;97108.48;109919;1247;68602;-66
2022/09/10 01:02:43;;;;;;;32.40;13.00;;;;;;;12.80;100.00;97107.58;110106;1247;59718;-67
2022/09/10 01:05:16;;;;;;;25.70;11.00;;;;;;;12.79;100.00;97104.88;110056;1247;59687;-67
2022/09/10 01:07:46;;;;;;;11.60;9.50;;;;;;;12.78;100.00;97104.02;109720;1248;71558;-68
2022/09/10 01:10:29;;;;;;;14.10;8.80;;;;;;;12.78;100.00;97100.80;110076;1247;68432;-67
2022/09/10 01:13:36;;;;;;;14.70;9.20;;;;;;;12.78;100.00;97098.14;110006;1247;69251;-66
2022/09/10 01:16:16;;;;;;;11.80;8.50;;;;;;;12.77;100.00;97094.23;109853;1248;59674;-66
2022/09/10 01:19:13;;;;;;;;;;;;;;;12.75;100.00;97093.95;110088;1247;59766;-66
2022/09/10 01:22:22;;;;;;;13.60;7.60;;;;;;;12.75;100.00;97093.06;110094;1247;71538;-66
2022/09/10 01:24:56;;;;;;;12.80;6.70;;;;;;;12.75;100.00;97095.05;110058;1247;68267;-66
2022/09/10 01:27:46;;;;;;;9.50;7.30;;;;;;;12.73;100.00;97096.73;110078;1247;68512;-67
2022/09/10 01:30:16;;;;;;;12.80;9.00;;;;;;;12.71;100.00;97093.06;110039;1247;59712;-66
2022/09/10 01:33:07;;;;;;;10.90;8.80;;;;;;;12.71;100.00;97095.16;110058;1247;59670;-67
2022/09/10 01:35:50;;;;;;;13.50;7.60;;;;;;;12.68;100.00;97093.15;110041;1247;70457;-68
2022/09/10 01:38:25;;;;;;;16.50;9.40;;;;;;;12.67;100.00;97093.08;110006;1247;69454;-67
2022/09/10 01:40:57;;;;;;;16.90;8.20;;;;;;;12.68;100.00;97092.16;110036;1247;69484;-67
2022/09/10 01:43:33;;;;;;;16.30;9.20;;;;;;;12.65;100.00;97097.29;110048;1247;59665;-67
2022/09/10 01:46:25;;;;;;;21.30;9.20;;;;;;;12.62;100.00;97096.65;110128;1247;59719;-67
2022/09/10 01:49:26;;;;;;;9.90;8.40;;;;;;;12.60;100.00;97090.73;109810;1247;71520;-67
2022/09/10 01:52:27;;;;;;;14.90;9.80;;;;;;;12.58;100.00;97085.17;110035;1247;67905;-66
2022/09/10 01:55:27;;;;;;;11.10;8.10;;;;;;;12.56;100.00;97086.77;110042;1247;68663;-67
2022/09/10 01:58:32;;;;;;;10.40;7.90;;;;;;;12.55;100.00;97079.27;110054;1247;59701;-67
2022/09/10 02:01:27;;;;;;;10.80;7.40;;;;;;;12.55;100.00;97065.45;110106;1247;59699;-67
2022/09/10 02:04:00;;;;;;;8.10;7.30;;;;;;;12.56;100.00;97064.04;110084;1247;71336;-66
2022/09/10 02:06:37;;;;;;;7.20;6.50;;;;;;;12.55;100.00;97061.97;110069;1247;69441;-67
2022/09/10 02:09:09;;;;;;;9.40;8.20;;;;;;;12.55;100.00;97058.35;110060;1247;68778;-68
2022/09/10 02:11:48;;;;;;;10.60;9.40;;;;;;;12.56;100.00;97059.82;110060;1247;59685;-67
2022/09/10 02:14:36;;;;;;;10.00;8.70;;;;;;;12.58;100.00;97054.79;110211;1247;59684;-67
2022/09/10 02:17:39;;;;;;;8.30;7.10;;;;;;;12.59;100.00;97053.92;110056;1247;70889;-67
2022/09/10 02:20:13;;;;;;;7.80;6.60;;;;;;;12.61;100.00;97060.77;109966;1248;69521;-67
2022/09/10 02:22:49;;;;;;;10.30;7.70;;;;;;;12.62;100.00;97065.59;110092;1247;68628;-67
2022/09/10 02:25:20;;;;;;;9.40;7.50;;;;;;;12.63;100.00;97062.31;110134;1248;59691;-68
2022/09/10 02:27:57;;;;;;;10.80;8.50;;;;;;;12.64;100.00;97066.23;110070;1247;59673;-65
2022/09/10 02:30:27;;;;;;;9.70;7.80;;;;;;;12.66;100.00;97063.27;110083;1247;71138;-67
2022/09/10 02:32:57;;;;;;;;;;;;;;;12.69;100.00;97062.65;110079;1247;69249;-67
2022/09/10 02:35:29;;;;;;;11.50;9.60;;;;;;;12.68;100.00;97061.66;109956;1249;68644;-67
2022/09/10 02:38:00;;;;;;;10.50;8.20;;;;;;;12.68;100.00;97063.42;110019;1247;59811;-66
2022/09/10 02:40:30;;;;;;;88.40;17.00;;;;;;;12.69;100.00;97064.95;110004;1247;59692;-66
2022/09/10 02:42:59;;;;;;;;;;;;;;;12.68;100.00;97065.72;110065;1247;71441;-67
2022/09/10 02:45:29;;;;;;;9.80;8.10;;;;;;;12.66;100.00;97057.69;110053;1248;68601;-66
2022/09/10 02:47:59;;;;;;;;;;;;;;;12.65;100.00;97055.30;110111;1247;68596;-67
2022/09/10 02:50:32;;;;;;;11.70;8.60;;;;;;;12.65;100.00;97054.96;110061;1247;59751;-67
2022/09/10 02:53:03;;;;;;;11.50;8.70;;;;;;;12.66;100.00;97043.38;110072;1247;59687;-67
2022/09/10 02:55:33;;;;;;;;;;;;;;;12.66;100.00;97041.40;110081;1247;71352;-67
2022/09/10 02:58:02;;;;;;;12.20;10.40;;;;;;;12.66;100.00;97037.23;110086;1247;69378;-68
2022/09/10 03:00:32;;;;;;;15.40;12.40;;;;;;;12.65;100.00;97037.44;110075;1247;68692;-68
2022/09/10 03:03:01;;;;;;;15.30;12.20;;;;;;;12.66;100.00;97032.19;110049;1247;60177;-66
2022/09/10 03:05:31;;;;;;;15.00;12.30;;;;;;;12.65;100.00;97030.15;110087;1247;59675;-66
2022/09/10 03:08:01;;;;;;;14.00;10.60;;;;;;;12.65;100.00;97024.41;110077;1247;71509;-67
2022/09/10 03:10:33;;;;;;;14.90;11.50;;;;;;;12.66;100.00;97018.73;110045;1247;68649;-67
2022/09/10 03:13:03;;;;;;;12.40;10.00;;;;;;;12.68;100.00;97020.75;110073;1247;69211;-67
2022/09/10 03:15:35;;;;;;;14.10;11.80;;;;;;;12.71;100.00;97022.77;110017;1247;59757;-67
2022/09/10 03:18:05;;;;;;;15.20;11.30;;;;;;;12.74;100.00;97015.88;110067;1247;59833;-65
2022/09/10 03:20:35;;;;;;;16.00;12.40;;;;;;;12.78;100.00;97016.47;110045;1247;70642;-67
2022/09/10 03:23:05;;;;;;;14.80;11.50;;;;;;;12.80;100.00;97020.80;110062;1247;68672;-66
2022/09/10 03:25:36;;;;;;;13.20;11.40;;;;;;;12.83;100.00;97023.02;109758;1248;68612;-66
2022/09/10 03:28:06;;;;;;;;;;;;;;;12.86;100.00;97020.44;110058;1247;59751;-66
2022/09/10 03:30:36;;;;;;;12.00;9.20;;;;;;;12.89;100.00;97015.47;110013;1247;59689;-66
2022/09/10 03:33:06;;;;;;;15.30;11.30;;;;;;;12.91;100.00;97013.73;110082;1247;71647;-65
2022/09/10 03:35:37;;;;;;;13.80;11.30;;;;;;;12.94;100.00;97017.82;110023;1247;68710;-66
2022/09/10 03:38:07;;;;;;;13.40;10.30;;;;;;;12.97;100.00;97018.63;110038;1247;68793;-66
2022/09/10 03:40:37;;;;;;;11.40;9.10;;;;;;;13.00;100.00;97021.13;110013;1249;59693;-67
2022/09/10 03:43:09;;;;;;;12.70;10.60;;;;;;;13.03;100.00;97019.63;110065;1247;59736;-67
2022/09/10 03:45:39;;;;;;;11.80;8.90;;;;;;;13.08;100.00;97019.58;110083;1247;71599;-68
2022/09/10 03:48:10;;;;;;;10.60;9.00;;;;;;;13.10;100.00;97018.66;110085;1246;68664;-68
2022/09/10 03:50:39;;;;;;;9.90;8.20;;;;;;;13.12;100.00;97019.67;110004;1248;68692;-67
2022/09/10 03:53:15;;;;;;;12.00;9.00;;;;;;;13.14;100.00;97012.74;110002;1247;59770;-68
2022/09/10 03:55:47;;;;;;;11.60;8.60;;;;;;;13.15;100.00;97010.98;109795;1248;60161;-65
2022/09/10 03:58:18;;;;;;;10.40;8.60;;;;;;;13.18;100.00;97017.64;110016;1247;70903;-67
2022/09/10 04:00:47;;;;;;;12.50;9.00;;;;;;;13.19;100.00;97016.84;110039;1247;69445;-66
2022/09/10 04:03:19;;;;;;;11.50;8.30;;;;;;;13.20;100.00;97010.58;110061;1247;69222;-67
2022/09/10 04:05:49;;;;;;;10.50;8.50;;;;;;;13.22;100.00;97009.89;110021;1248;59710;-66
2022/09/10 04:08:19;;;;;;;9.50;8.00;;;;;;;13.22;100.00;97007.48;110055;1247;60053;-67
2022/09/10 04:10:51;;;;;;;10.50;9.30;;;;;;;13.21;100.00;97005.09;110097;1247;71586;-66
2022/09/10 04:13:21;;;;;;;10.30;8.50;;;;;;;13.20;100.00;97011.77;110122;1247;68739;-67
2022/09/10 04:15:52;;;;;;;9.70;8.20;;;;;;;13.21;100.00;97024.48;110076;1247;68594;-66
2022/09/10 04:18:22;;;;;;;10.80;9.20;;;;;;;13.21;100.00;97021.50;110014;1247;59725;-63
2022/09/10 04:20:52;;;;;;;;;;;;;;;13.22;100.00;97018.65;110056;1247;59673;-66
2022/09/10 04:23:21;;;;;;;;;;;;;;;13.23;100.00;97021.94;110026;1247;70741;-65
2022/09/10 04:25:51;;;;;;;10.70;9.30;;;;;;;13.26;100.00;97022.88;109742;1248;69469;-66
2022/09/10 04:28:21;;;;;;;11.20;9.50;;;;;;;13.29;100.00;97021.06;110096;1247;68260;-64
2022/09/10 04:30:50;;;;;;;10.30;8.80;;;;;;;13.31;100.00;97022.23;109732;1248;59763;-65
2022/09/10 04:33:23;;;;;;;14.10;10.30;;;;;;;13.34;100.00;97013.19;110085;1247;59685;-66
2022/09/10 04:35:55;;;;;;;12.60;10.00;;;;;;;13.39;100.00;97009.41;110083;1247;70692;-66
2022/09/10 04:38:24;;;;;;;11.90;9.40;;;;;;;13.44;100.00;97003.21;109851;1250;69412;-67
2022/09/10 04:40:53;;;;;;;15.20;12.80;;;;;;;13.48;100.00;97000.58;110044;1247;69412;-67
2022/09/10 04:43:27;;;;;;;13.80;11.40;;;;;;;13.53;100.00;97001.02;110032;1248;59625;-66
2022/09/10 04:45:57;;;;;;;15.10;11.80;;;;;;;13.54;100.00;97004.58;110206;1247;59684;-67
2022/09/10 04:48:27;;;;;;;12.50;10.10;;;;;;;13.56;100.00;97002.48;110056;1247;71344;-67
2022/09/10 04:50:56;;;;;;;14.60;12.50;;;;;;;13.61;100.00;97004.30;109769;1248;68650;-67
2022/09/10 04:53:46;;;;;;;16.60;13.60;;;;;;;13.69;100.00;96999.88;110060;1247;69366;-67
2022/09/10 04:56:16;;;;;;;23.90;21.40;;;;;;;13.72;100.00;96998.36;110053;1247;60208;-65
2022/09/10 04:58:45;;;;;;;17.00;15.30;;;;;;;13.80;100.00;97005.70;110042;1247;59738;-66
2022/09/10 05:01:14;;;;;;;17.30;14.00;;;;;;;13.89;100.00;96998.09;110019;1247;69798;-65
2022/09/10 05:03:46;;;;;;;16.70;13.40;;;;;;;13.99;100.00;96994.98;110027;1248;68585;-68
2022/09/10 05:06:15;;;;;;;15.20;13.30;;;;;;;14.09;100.00;97000.74;110010;1247;69248;-66
2022/09/10 05:08:47;;;;;;;16.70;14.70;;;;;;;14.21;100.00;97003.09;110071;1247;59702;-66
2022/09/10 05:11:18;;;;;;;26.60;23.90;;;;;;;14.33;100.00;97002.85;110081;1247;60097;-67
2022/09/10 05:13:48;;;;;;;17.20;15.40;;;;;;;14.43;100.00;97001.23;110142;1247;71337;-67
2022/09/10 05:16:20;;;;;;;15.90;14.20;;;;;;;14.51;100.00;97000.10;110069;1248;69214;-66
2022/09/10 05:18:49;;;;;;;16.70;15.00;;;;;;;14.62;100.00;96999.61;110087;1246;69358;-67
2022/09/10 05:21:19;;;;;;;16.80;15.10;;;;;;;14.73;100.00;96997.60;110101;1246;59774;-68
2022/09/10 05:23:51;;;;;;;25.10;23.00;;;;;;;14.89;100.00;97001.56;110115;1247;59676;-67
2022/09/10 05:26:23;;;;;;;15.60;13.40;;;;;;;15.06;100.00;97005.54;110117;1246;71578;-67
2022/09/10 05:28:53;;;;;;;12.90;11.60;;;;;;;15.21;100.00;97005.27;110091;1247;68622;-65
2022/09/10 05:31:22;;;;;;;;;;;;;;;15.29;98.88;97007.13;110106;1248;68601;-67
2022/09/10 05:33:54;;;;;;;10.80;9.60;;;;;;;15.39;99.57;97004.58;110086;1247;59676;-67
2022/09/10 05:36:23;;;;;;;10.10;9.10;;;;;;;15.47;99.82;97007.61;110095;1247;59751;-67
2022/09/10 05:38:53;;;;;;;14.50;13.20;;;;;;;15.55;100.00;97010.69;110057;1247;71347;-66
2022/09/10 05:41:23;;;;;;;15.10;13.80;;;;;;;15.63;99.96;97007.99;110091;1248;68937;-67
2022/09/10 05:43:53;;;;;;;11.40;10.20;;;;;;;15.69;99.57;96997.59;110090;1247;68710;-68
2022/09/10 05:46:23;;;;;;;11.30;9.70;;;;;;;15.74;99.46;96996.36;110100;1247;59709;-67
2022/09/10 05:48:54;;;;;;;10.20;9.10;;;;;;;15.82;99.60;97001.33;110092;1247;59713;-67
2022/09/10 05:51:27;;;;;;;11.10;10.00;;;;;;;15.91;99.10;97005.23;110121;1248;70795;-67
2022/09/10 05:53:59;;;;;;;11.80;10.60;;;;;;;15.96;98.65;97006.86;110117;1248;69570;-63
2022/09/10 05:56:31;;;;;;;11.60;10.40;;;;;;;16.01;98.26;97007.13;110070;1246;69418;-66
2022/09/10 05:59:02;;;;;;;12.00;10.80;;;;;;;16.07;97.55;97010.97;110102;1248;59750;-67
2022/09/10 06:01:32;;;;;;;12.10;10.30;;;;;;;16.13;97.69;97001.10;110118;1248;59613;-67
2022/09/10 06:04:04;;;;;;;11.90;10.60;;;;;;;16.21;98.41;96992.46;110129;1247;71623;-67
2022/09/10 06:06:33;;;;;;;12.70;11.40;;;;;;;16.32;98.60;96989.79;110112;1248;68596;-67
2022/09/10 06:09:07;;;;;;;11.00;9.90;;;;;;;16.41;98.41;96995.05;110113;1248;68587;-66
2022/09/10 06:12:06;;;;;;;12.20;10.30;;;;;;;16.52;98.24;96991.77;109953;1248;59670;-64
2022/09/10 06:14:35;;;;;;;10.30;9.20;;;;;;;16.62;97.67;96984.34;110063;1247;59688;-65
2022/09/10 06:17:04;;;;;;;11.10;9.60;;;;;;;16.74;97.42;96988.09;110115;1248;70869;-66
2022/09/10 06:19:33;;;;;;;12.30;10.40;;;;;;;16.85;97.32;96993.98;110109;1247;69294;-65
2022/09/10 06:22:02;;;;;;;11.20;10.00;;;;;;;16.93;97.00;96994.33;110044;1247;68660;-68
2022/09/10 06:24:37;;;;;;;12.50;10.40;;;;;;;17.03;96.79;96993.98;110062;1247;59741;-65
2022/09/10 06:27:05;;;;;;;;;;;;;;;17.10;96.16;96995.08;110109;1248;59745;-66
2022/09/10 06:29:35;;;;;;;9.90;8.90;;;;;;;17.16;95.19;96990.88;110097;1248;70888;-67
2022/09/10 06:32:05;;;;;;;10.30;9.30;;;;;;;17.25;95.56;96989.02;110130;1248;69184;-64
2022/09/10 06:34:34;;;;;;;9.90;9.00;;;;;;;17.35;95.86;96989.24;110086;1248;69872;-66
2022/09/10 06:37:04;;;;;;;10.70;8.20;;;;;;;17.42;95.62;96990.59;110106;1248;59686;-68
2022/09/10 06:39:36;;;;;;;9.70;8.30;;;;;;;17.46;95.07;96991.04;110140;1248;59786;-67
2022/09/10 06:42:06;;;;;;;;;;;;;;;17.48;94.46;96998.24;110137;1248;70830;-67
2022/09/10 06:44:53;;;;;;;11.30;9.50;;;;;;;17.44;93.28;97007.39;110165;1247;68469;-68
2022/09/10 06:47:42;;;;;;;11.30;10.20;;;;;;;17.48;93.83;97005.11;110036;1247;68155;-67
2022/09/10 06:50:38;;;;;;;11.10;9.10;;;;;;;17.48;92.59;97003.46;109914;1249;59757;-68
2022/09/10 06:53:10;;;;;;;12.00;9.80;;;;;;;17.52;93.19;96999.66;110140;1247;59691;-67
2022/09/10 06:55:39;;;;;;;9.50;7.80;;;;;;;17.58;93.38;96995.50;110041;1247;71486;-67
2022/09/10 06:58:08;;;;;;;8.90;8.00;;;;;;;17.64;93.48;96992.23;110061;1247;68643;-67
2022/09/10 07:00:38;;;;;;;11.10;9.80;;;;;;;17.68;93.43;96982.77;110091;1247;69549;-67
2022/09/10 07:03:07;;;;;;;12.00;10.20;;;;;;;17.65;93.92;96976.45;110101;1247;59689;-67
2022/09/10 07:05:37;;;;;;;13.00;10.40;;;;;;;17.64;94.93;96977.95;110102;1248;59707;-67
2022/09/10 07:08:06;;;;;;;10.00;9.00;;;;;;;17.69;94.88;96977.45;110064;1247;70728;-67
2022/09/10 07:10:36;;;;;;;10.10;9.10;;;;;;;17.75;94.80;96972.06;110088;1248;68637;-69
2022/09/10 07:13:06;;;;;;;10.40;9.20;;;;;;;17.80;94.85;96967.77;110117;1246;68449;-67
2022/09/10 07:15:35;;;;;;;12.40;10.70;;;;;;;17.90;94.93;96964.77;110103;1248;59700;-68
2022/09/10 07:18:11;;;;;;;10.60;9.50;;;;;;;18.00;94.44;96968.05;110101;1248;59699;-67
2022/09/10 07:20:42;;;;;;;12.60;10.40;;;;;;;18.13;93.94;96970.11;110112;1248;70750;-68
2022/09/10 07:23:17;;;;;;;12.30;10.60;;;;;;;18.27;93.72;96973.48;110103;1248;69492;-68
2022/09/10 07:25:47;;;;;;;12.70;10.90;;;;;;;18.48;92.59;96976.19;110068;1247;68469;-68
2022/09/10 07:28:35;;;;;;;12.40;11.20;;;;;;;18.79;91.77;96975.83;110087;1248;59761;-67
2022/09/10 07:31:13;;;;;;;10.70;9.20;;;;;;;19.03;88.33;96980.23;110105;1248;59677;-68
2022/09/10 07:33:44;;;;;;;13.50;10.50;;;;;;;19.30;87.37;96973.56;110134;1248;71603;-67
2022/09/10 07:36:14;;;;;;;11.40;10.30;;;;;;;19.61;86.42;96969.95;110093;1247;69283;-68
2022/09/10 07:38:45;;;;;;;10.10;9.10;;;;;;;19.96;84.94;96962.14;110112;1247;68762;-68
2022/09/10 07:41:14;;;;;;;10.40;9.40;;;;;;;20.35;82.83;96963.74;110081;1248;59743;-68
2022/09/10 07:43:43;;;;;;;11.40;10.30;;;;;;;20.84;80.66;96966.51;110134;1247;59698;-68
2022/09/10 07:46:19;;;;;;;9.10;8.10;;;;;;;21.23;80.65;96966.11;110157;1248;70881;-68
2022/09/10 07:48:57;;;;;;;10.70;9.20;;;;;;;21.70;79.33;96968.95;110124;1248;68732;-68
2022/09/10 07:51:28;;;;;;;11.40;10.20;;;;;;;21.75;75.07;96973.86;110068;1247;68496;-68
2022/09/10 07:53:59;;;;;;;10.00;8.90;;;;;;;21.57;74.09;96973.30;110094;1247;59760;-68
2022/09/10 07:56:35;;;;;;;10.70;9.50;;;;;;;21.36;75.17;96975.88;110072;1247;59678;-68
2022/09/10 07:59:06;;;;;;;10.00;9.00;;;;;;;21.11;74.63;96972.73;110109;1248;71557;-69
2022/09/10 08:01:45;;;;;;;10.40;9.40;;;;;;;20.89;75.96;96966.56;110093;1248;68772;-67
2022/09/10 08:04:15;;;;;;;11.10;10.00;;;;;;;20.68;75.46;96971.39;110084;1247;68644;-68
2022/09/10 08:06:45;;;;;;;10.40;9.50;;;;;;;20.45;76.05;96972.82;110116;1248;59737;-67
2022/09/10 08:09:14;;;;;;;11.70;10.60;;;;;;;20.20;76.68;96974.89;110154;1248;59716;-68
2022/09/10 08:11:49;;;;;;;11.80;10.70;;;;;;;20.05;77.53;96980.88;110086;1247;70723;-68
2022/09/10 08:14:20;;;;;;;11.90;10.80;;;;;;;19.84;79.82;96986.55;110120;1247;68659;-67
2022/09/10 08:16:51;;;;;;;13.30;11.70;;;;;;;19.67;80.16;96980.36;110078;1248;69498;-66
2022/09/10 08:19:21;;;;;;;12.20;11.00;;;;;;;19.50;81.15;96968.02;110117;1248;59689;-67
2022/09/10 08:21:51;;;;;;;13.60;12.30;;;;;;;19.41;82.04;96972.66;110080;1247;59681;-67
2022/09/10 08:24:27;;;;;;;12.90;11.50;;;;;;;19.37;85.29;96978.11;110082;1247;70757;-67
2022/09/10 08:26:55;;;;;;;11.00;9.90;;;;;;;19.40;83.56;96975.05;110077;1247;69594;-67
2022/09/10 08:29:26;;;;;;;12.30;11.10;;;;;;;19.47;83.18;96980.60;110049;1246;69744;-67
2022/09/10 08:31:55;;;;;;;11.30;10.20;;;;;;;19.54;83.11;96980.48;110115;1248;59780;-67
2022/09/10 08:34:28;;;;;;;12.10;10.20;;;;;;;19.63;83.15;96981.35;110127;1246;59646;-66
2022/09/10 08:37:05;;;;;;;12.10;10.80;;;;;;;19.73;83.06;96983.07;110095;1248;69751;-66
2022/09/10 08:39:35;;;;;;;11.80;10.60;;;;;;;19.77;83.33;96986.77;110106;1247;69436;-65
2022/09/10 08:42:15;;;;;;;12.80;10.50;;;;;;;19.82;82.97;96990.96;110072;1246;68623;-66
2022/09/10 08:44:51;;;;;;;10.80;9.70;;;;;;;19.93;83.31;96986.61;110077;1247;59755;-65
2022/09/10 08:47:58;;;;;;;10.30;9.00;;;;;;;20.06;83.32;96981.63;110144;1246;59736;-66
2022/09/10 08:50:32;;;;;;;11.20;10.10;;;;;;;20.24;82.90;96977.79;109809;1248;71532;-65
2022/09/10 08:53:28;;;;;;;10.20;9.20;;;;;;;20.39;82.37;96977.52;110097;1247;69505;-66
2022/09/10 08:56:04;;;;;;;11.30;10.20;;;;;;;21.08;82.29;96971.89;110309;1248;69487;-66
2022/09/10 08:58:41;;;;;;;9.50;8.50;;;;;;;21.82;79.06;96969.27;110144;1248;61016;-66
2022/09/10 09:01:23;;;;;;;9.10;8.20;;;;;;;22.73;74.06;96968.99;110055;1248;59686;-66
2022/09/10 09:03:56;;;;;;;9.10;8.20;;;;;;;23.81;73.83;96967.94;109936;1250;71628;-67
2022/09/10 09:06:37;;;;;;;9.10;8.00;;;;;;;24.74;67.72;96955.45;109831;1250;68787;-67
2022/09/10 09:09:08;;;;;;;7.70;7.00;;;;;;;25.70;69.40;96959.96;109990;1248;69472;-67
2022/09/10 09:12:14;;;;;;;7.90;7.20;;;;;;;26.51;66.42;96958.16;109757;1250;59718;-67
2022/09/10 09:14:46;;;;;;;6.00;5.40;;;;;;;26.52;59.07;96950.73;109798;1249;59681;-67
2022/09/10 09:17:58;;;;;;;7.30;6.60;;;;;;;27.29;59.44;96950.15;110045;1249;70059;-69
2022/09/10 09:20:30;;;;;;;6.90;6.20;;;;;;;27.98;58.06;96945.33;110035;1247;69407;-68
2022/09/10 09:23:23;;;;;;;7.10;6.40;;;;;;;28.49;54.21;96937.40;109951;1247;69790;-68
2022/09/10 09:26:19;;;;;;;6.50;5.80;;;;;;;28.53;50.18;96928.65;109673;1248;59634;-68
2022/09/10 09:28:59;;;;;;;6.40;5.80;;;;;;;28.83;51.23;96925.29;110054;1249;59847;-68
2022/09/10 09:31:32;;;;;;;7.30;6.60;;;;;;;29.30;50.18;96923.88;110039;1248;71611;-67
2022/09/10 09:34:17;;;;;;;6.00;5.50;;;;;;;29.33;47.83;96923.13;110029;1248;68612;-67
2022/09/10 09:36:59;;;;;;;7.20;5.60;;;;;;;29.17;49.17;96920.86;110008;1249;69020;-68
2022/09/10 09:39:46;;;;;;;6.80;6.10;;;;;;;29.30;49.20;96914.45;110027;1249;59726;-67
2022/09/10 09:42:21;;;;;;;7.00;5.50;;;;;;;29.27;47.22;96909.94;110006;1247;60183;-68
2022/09/10 09:45:06;;;;;;;7.60;6.70;;;;;;;29.38;45.09;96905.98;110014;1249;71602;-68
2022/09/10 09:47:35;;;;;;;7.30;6.60;;;;;;;28.77;47.35;96900.33;109785;1248;68629;-69
2022/09/10 09:50:04;;;;;;;8.00;7.30;;;;;;;28.77;47.61;96895.86;109815;1248;69519;-69
2022/09/10 09:52:34;;;;;;;7.80;7.00;;;;;;;28.38;49.18;96888.02;110025;1248;59762;-68
2022/09/10 09:55:12;;;;;;;6.80;6.20;;;;;;;28.76;47.79;96884.55;110055;1248;59713;-68
2022/09/10 09:57:43;;;;;;;7.20;6.40;;;;;;;29.12;45.84;96878.73;110034;1249;70755;-68
2022/09/10 10:00:35;;;;;;;7.30;6.60;;;;;;;28.90;44.19;96872.89;110076;1250;68542;-68
2022/09/10 10:03:19;;;;;;;7.70;7.00;;;;;;;28.29;45.06;96862.30;110016;1250;69263;-68
2022/09/10 10:05:48;;;;;;;8.40;7.40;;;;;;;28.79;43.53;96865.94;110009;1247;59758;-68
2022/09/10 10:08:30;;;;;;;9.50;8.60;;;;;;;28.98;42.35;96864.16;110042;1248;59686;-68
2022/09/10 10:11:00;;;;;;;9.40;8.50;;;;;;;28.96;41.04;96857.77;110018;1248;71206;-68
2022/09/10 10:13:41;;;;;;;13.00;11.10;;;;;;;28.86;41.85;96859.89;110018;1248;69599;-68
2022/09/10 10:16:19;;;;;;;6.80;6.10;;;;;;;28.69;42.97;96854.83;109985;1248;68683;-68
2022/09/10 10:18:49;;;;;;;7.50;6.80;;;;;;;28.58;42.78;96848.77;109990;1249;59755;-68
2022/09/10 10:21:30;;;;;;;6.20;5.40;;;;;;;29.11;42.23;96852.34;110058;1247;59699;-68
2022/09/10 10:24:02;;;;;;;6.30;5.70;;;;;;;29.22;42.52;96850.39;109836;1249;71353;-68
2022/09/10 10:26:35;;;;;;;6.90;5.90;;;;;;;29.68;40.04;96851.57;110049;1248;69391;-68
2022/09/10 10:29:14;;;;;;;6.70;5.90;;;;;;;29.42;40.73;96843.94;110044;1249;69438;-67
2022/09/10 10:31:47;;;;;;;5.90;5.30;;;;;;;28.64;40.94;96841.08;110019;1247;59696;-68
2022/09/10 10:34:31;;;;;;;6.70;6.10;;;;;;;28.35;41.99;96841.35;110046;1248;59750;-67
2022/09/10 10:37:34;;;;;;;6.60;6.00;;;;;;;28.10;41.61;96847.34;109971;1248;71535;-67
2022/09/10 10:40:13;;;;;;;7.60;6.60;;;;;;;28.02;40.67;96849.63;110073;1248;68673;-69
2022/09/10 10:43:00;;;;;;;6.80;6.10;;;;;;;27.66;40.89;96863.05;110016;1248;68623;-68
2022/09/10 10:45:36;;;;;;;7.80;6.80;;;;;;;27.01;42.71;96852.04;110142;1247;59757;-69
2022/09/10 10:48:30;;;;;;;12.20;11.10;;;;;;;26.54;43.77;96851.31;110059;1250;59740;-68
2022/09/10 10:51:20;;;;;;;8.20;7.40;;;;;;;26.00;45.40;96854.40;110099;1250;71491;-67
2022/09/10 10:53:49;;;;;;;7.10;6.40;;;;;;;25.14;47.93;96848.14;110014;1248;69063;-68
2022/09/10 10:56:31;;;;;;;;;;;;;;;24.40;49.22;96854.67;110024;1250;68952;-66
2022/09/10 10:59:03;;;;;;;7.90;7.20;;;;;;;24.09;50.95;96859.33;109735;1250;59687;-68
2022/09/10 11:01:43;;;;;;;8.40;7.60;;;;;;;24.04;51.22;96847.14;109675;1250;59694;-68
2022/09/10 11:04:41;;;;;;;7.90;7.10;;;;;;;23.68;52.58;96844.85;109953;1250;71878;-68
2022/09/10 11:07:13;;;;;;;8.60;7.50;;;;;;;23.68;53.21;96843.37;110037;1248;69517;-66
2022/09/10 11:09:50;;;;;;;8.20;7.30;;;;;;;23.52;54.46;96846.23;110015;1248;69591;-67
2022/09/10 11:12:48;;;;;;;8.70;8.00;;;;;;;23.40;54.65;96854.45;110029;1250;60145;-66
2022/09/10 11:15:46;;;;;;;10.20;8.90;;;;;;;23.33;56.31;96854.95;110061;1248;59688;-66
2022/09/10 11:18:41;;;;;;;9.30;8.40;;;;;;;23.23;57.91;96857.61;110028;1249;71376;-66
2022/09/10 11:21:25;;;;;;;9.90;8.90;;;;;;;22.99;59.37;96847.79;110002;1248;69532;-68
2022/09/10 11:24:12;;;;;;;11.60;10.40;;;;;;;22.62;61.27;96848.63;110043;1248;68402;-67
2022/09/10 11:26:55;;;;;;;11.80;10.60;;;;;;;22.44;63.78;96850.22;110091;1248;59776;-68
2022/09/10 11:29:39;;;;;;;31.00;24.60;;;;;;;22.54;64.29;96847.34;110092;1247;59692;-67
2022/09/10 11:32:28;;;;;;;11.00;9.60;;;;;;;22.71;64.51;96848.70;110047;1250;70715;-67
2022/09/10 11:35:25;;;;;;;10.20;9.20;;;;;;;22.91;63.42;96840.35;110049;1248;68591;-67
2022/09/10 11:38:06;;;;;;;8.90;8.00;;;;;;;23.05;62.58;96837.75;109992;1250;69365;-68
2022/09/10 11:41:12;;;;;;;10.70;8.50;;;;;;;23.08;62.09;96827.88;109984;1250;59740;-68
2022/09/10 11:43:55;;;;;;;10.70;9.70;;;;;;;23.20;61.87;96822.13;110032;1250;59738;-68
2022/09/10 11:46:52;;;;;;;8.80;7.70;;;;;;;23.28;61.33;96816.87;109784;1250;70395;-67
2022/09/10 11:49:35;;;;;;;8.50;7.70;;;;;;;23.45;61.38;96804.40;109991;1248;67652;-67
2022/09/10 11:52:04;;;;;;;9.40;8.50;;;;;;;23.94;60.35;96801.63;110000;1248;69374;-66
2022/09/10 11:54:34;;;;;;;9.70;7.40;;;;;;;24.51;57.75;96803.30;110011;1248;59771;-68
2022/09/10 11:57:31;;;;;;;8.80;8.00;;;;;;;25.49;55.25;96810.21;110018;1250;59686;-67